• Join FlightAware (Why Join?)
  • Login
  • US Flag 
06:59AM EDT


 

Airport Tracker/Info


-or-


 

Live Flight TrackerFlight Track Log ✈ DAL6034 ✈ 12-Apr-2013 ✈ KMHT - KLGA

Flight Track Log - Related Links

Times and Time Zones

All times are in EDT time to prevent confusion due to time zone crossing. See the DAL6034 flight status page for this flight to view local times or setup timezone preferences in your user account.

Time Position Orientation Groundspeed Altitude Reporting Facility
EDT Latitude Longitude Course Direction KTS MPH feet Rate Location/Type
10:00PM 42.9667 -71.4167 22° Northeast 166 191 2,400  Level KA90
10:01PM 43.0169 -71.4406 341° North 224 258 5,600 2,460 Climbing Boston Center
10:02PM 43.0467 -71.4883 310° West 199 229 7,800 1,980 Climbing Boston Center
10:03PM 43.0347 -71.5653 258° West 191 220 9,600 1,980 Climbing Boston Center
10:04PM 42.9853 -71.6283 223° Southwest 223 257 11,700 1,680 Climbing Boston Center
10:05PM 42.9336 -71.7000 225° Southwest 258 297 13,000 1,440 Climbing Boston Center
10:06PM 42.8736 -71.7772 223° Southwest 292 336 14,700 1,560 Climbing Boston Center
10:07PM 42.8136 -71.8569 224° Southwest 298 343 16,200 1,440 Climbing Boston Center
10:08PM 42.7536 -71.9397 225° Southwest 306 352 17,700 1,320 Climbing Boston Center
10:09PM 42.7039 -72.0050 224° Southwest 306 352 18,900 1,140 Climbing Boston Center
10:10PM 42.6375 -72.0958 225° Southwest 306 352 20,000 360 Climbing Boston Center
10:11PM 42.5689 -72.1864 224° Southwest 323 372 19,700 -900 Descending Boston Center
10:12PM 42.5003 -72.2767 224° Southwest 343 395 18,300 -1,620 Descending Boston Center
10:13PM 42.4400 -72.3725 230° Southwest 343 395 16,600 -1,140 Descending Boston Center
10:14PM 42.3794 -72.4653 229° Southwest 343 395 16,000 -360 Descending Boston Center
10:15PM 42.3108 -72.5664 227° Southwest 343 395 16,000  Level Boston Center
10:16PM 42.2564 -72.6506 229° Southwest 338 389 16,000  Level Boston Center
10:17PM 42.1958 -72.7456 229° Southwest 338 389 16,000  Level Boston Center
10:18PM 42.1286 -72.8517 230° Southwest 338 389 16,000  Level Boston Center
10:19PM 42.0636 -72.9464 227° Southwest 338 389 16,000  Level Boston Center
10:20PM 42.0050 -73.0353 228° Southwest 338 389 16,000  Level Boston Center
10:21PM 41.9503 -73.1211 229° Southwest 338 389 16,000 -120 Level Boston Center
10:22PM 41.8747 -73.2153 223° Southwest 332 382 15,800 -600 Descending Boston Center
10:23PM 41.8136 -73.2842 220° Southwest 337 388 14,800 -1,020 Descending Boston Center
10:24PM 41.7403 -73.3611 218° Southwest 337 388 13,800 -1,080 Descending Boston Center
10:26PM 41.6177 -73.4271 239° Southwest  Level Estimated
10:26PM 41.5667 -73.5500 239° Southwest 258 297 10,900  Level New York TRACON
10:27PM 41.5167 -73.6000 217° Southwest 245 282 9,900 -1,020 Descending New York TRACON
10:28PM 41.4500 -73.6500 209° Southwest 245 282 8,900 -1,020 Descending New York TRACON
10:29PM 41.4000 -73.6833 207° Southwest 247 284 7,900 -1,020 Descending New York TRACON
10:30PM 41.3333 -73.7167 201° Southwest 244 281 6,900 -1,020 Descending New York TRACON
10:31PM 41.2667 -73.7500 201° Southwest 247 284 5,900 -1,020 Descending New York TRACON
10:33PM 41.2016 -73.6728 147° Southeast  Level FlightAware Approximate
10:33PM 41.1333 -73.8167 147° Southeast 260 299 4,000  Level New York TRACON
10:34PM 41.0667 -73.8500 201° Southwest 261 300 3,900 -60 Descending New York TRACON
10:35PM 41.0000 -73.8667 191° South 253 291 3,900  Level New York TRACON
10:36PM 40.9333 -73.9000 201° Southwest 254 292 3,900  Level New York TRACON
10:37PM 40.8667 -73.9500 210° Southwest 251 289 3,900  Level New York TRACON
10:38PM 40.8000 -73.9833 201° Southwest 254 292 3,900  Level New York TRACON
10:39PM 40.7333 -74.0167 201° Southwest 248 285 3,900  Level New York TRACON
10:40PM 40.6833 -74.0500 207° Southwest 198 228 3,900  Level New York TRACON
10:41PM 40.6500 -74.0833 217° Southwest 192 221 3,900 -120 Level New York TRACON
10:42PM 40.6000 -74.1167 207° Southwest 188 216 3,700 -600 Descending New York TRACON
10:43PM 40.5667 -74.1000 159° South 217 250 2,700 -540 Descending New York TRACON
10:44PM 40.6000 -74.0333 57° Northeast 191 220 2,700 -180 Level New York TRACON
10:46PM 40.6833 -73.9500 37° Northeast 189 217 2,200 -300 Descending New York TRACON